Time;durP1;ratioP1;P1;durP2;ratioP2;P2;SDS_P1;SDS_P2;PMS_P1;PMS_P2;Temp;Humidity;BMP_temperature;BMP_pressure;BME280_temperature;BME280_humidity;BME280_pressure;Samples;Min_cycle;Max_cycle;Signal;HPM_P1;HPM_P2
2023/03/12 00:01:32;;;;;;;10.60;8.55;;;-0.50;99.90;;;;;;5012710;28;20095;-34
2023/03/12 00:03:59;;;;;;;12.68;9.07;;;-0.50;99.90;;;;;;5004350;28;20037;-35
2023/03/12 00:06:25;;;;;;;13.80;9.65;;;-0.50;99.90;;;;;;5009892;28;20454;-35
2023/03/12 00:08:51;;;;;;;13.00;8.95;;;-0.50;99.90;;;;;;5021712;28;20036;-35
2023/03/12 00:11:19;;;;;;;14.65;9.63;;;-0.50;99.90;;;;;;5013319;28;20034;-34
2023/03/12 00:13:51;;;;;;;10.35;9.00;;;-0.60;99.90;;;;;;5015465;28;20494;-35
2023/03/12 00:16:17;;;;;;;10.07;7.70;;;-0.60;99.90;;;;;;5012844;28;20029;-34
2023/03/12 00:18:46;;;;;;;7.82;6.70;;;-0.60;99.90;;;;;;5013157;28;20136;-34
2023/03/12 00:21:11;;;;;;;12.02;7.03;;;-0.60;99.90;;;;;;5013039;28;20482;-34
2023/03/12 00:23:37;;;;;;;10.00;6.45;;;-0.60;99.90;;;;;;5006435;28;20075;-34
2023/03/12 00:26:11;;;;;;;14.55;7.50;;;-0.50;99.90;;;;;;5010572;28;20037;-34
2023/03/12 00:28:38;;;;;;;10.90;7.35;;;-0.50;99.90;;;;;;5012551;28;20041;-34
2023/03/12 00:31:17;;;;;;;8.68;6.95;;;-0.40;99.90;;;;;;5012891;28;20498;-35
2023/03/12 00:33:43;;;;;;;8.65;6.63;;;-0.40;99.90;;;;;;5011542;28;20108;-34
2023/03/12 00:36:09;;;;;;;9.95;6.45;;;-0.40;99.90;;;;;;5008229;28;20117;-34
2023/03/12 00:38:34;;;;;;;9.50;6.78;;;-0.30;99.90;;;;;;5012697;28;20038;-34
2023/03/12 00:41:00;;;;;;;10.70;7.30;;;-0.30;99.90;;;;;;5005057;28;20046;-34
2023/03/12 00:43:26;;;;;;;7.85;7.00;;;-0.30;99.90;;;;;;5011232;28;20049;-34
2023/03/12 00:45:51;;;;;;;9.57;7.35;;;-0.30;99.90;;;;;;5004626;28;20487;-35
2023/03/12 00:48:17;;;;;;;12.25;7.32;;;-0.20;99.90;;;;;;5012883;28;20445;-35
2023/03/12 00:50:43;;;;;;;8.77;6.68;;;-0.20;99.90;;;;;;5011967;28;20034;-35
2023/03/12 00:53:08;;;;;;;11.93;7.18;;;-0.20;99.90;;;;;;5013062;28;20033;-35
2023/03/12 00:55:34;;;;;;;10.65;7.00;;;-0.20;99.90;;;;;;4992033;28;20407;-34
2023/03/12 00:58:00;;;;;;;9.13;6.40;;;-0.20;99.90;;;;;;5012774;28;20095;-35
2023/03/12 01:00:26;;;;;;;9.80;7.22;;;-0.20;99.90;;;;;;5012427;28;20592;-35
2023/03/12 01:02:51;;;;;;;10.50;6.72;;;-0.20;99.90;;;;;;5038713;28;20121;-35
2023/03/12 01:05:17;;;;;;;10.90;7.82;;;-0.20;99.90;;;;;;5033972;28;20495;-34
2023/03/12 01:07:43;;;;;;;8.90;6.43;;;-0.20;99.90;;;;;;5041200;28;20482;-34
2023/03/12 01:10:10;;;;;;;8.68;6.30;;;-0.20;99.90;;;;;;5033944;28;20124;-35
2023/03/12 01:12:36;;;;;;;9.57;6.68;;;-0.20;99.90;;;;;;5015094;28;20044;-35
2023/03/12 01:15:03;;;;;;;12.68;7.30;;;-0.20;99.90;;;;;;5018153;28;20531;-34
2023/03/12 01:17:28;;;;;;;10.13;6.97;;;-0.20;99.90;;;;;;5015580;28;20034;-34
2023/03/12 01:19:54;;;;;;;7.30;6.00;;;-0.30;99.90;;;;;;5003063;28;20393;-34
2023/03/12 01:22:23;;;;;;;8.32;6.47;;;-0.30;99.90;;;;;;5014872;28;20040;-34
2023/03/12 01:24:49;;;;;;;9.60;6.43;;;-0.30;99.90;;;;;;5015874;28;20513;-34
2023/03/12 01:27:14;;;;;;;13.88;7.15;;;-0.30;99.90;;;;;;5018883;28;20243;-35
2023/03/12 01:29:40;;;;;;;11.00;6.75;;;-0.30;99.90;;;;;;5015890;28;20450;-34
2023/03/12 01:32:06;;;;;;;10.52;6.53;;;-0.30;99.90;;;;;;5015369;28;20120;-34
2023/03/12 01:34:34;;;;;;;12.27;6.57;;;-0.20;99.90;;;;;;5015139;28;20044;-34
2023/03/12 01:37:00;;;;;;;8.07;6.45;;;-0.20;99.90;;;;;;5010907;28;20068;-34
2023/03/12 01:39:26;;;;;;;7.90;6.10;;;-0.20;99.90;;;;;;5012596;28;20058;-35
2023/03/12 01:41:52;;;;;;;7.28;5.97;;;-0.20;99.90;;;;;;5001251;28;20042;-34
2023/03/12 01:44:17;;;;;;;9.77;6.13;;;-0.20;99.90;;;;;;5015151;28;20453;-34
2023/03/12 01:46:44;;;;;;;8.30;6.40;;;-0.20;99.90;;;;;;5039518;28;20052;-35
2023/03/12 01:49:12;;;;;;;9.15;6.18;;;-0.20;99.90;;;;;;5014442;28;20371;-34
2023/03/12 01:51:59;;;;;;;9.25;6.18;;;-0.10;99.90;;;;;;5043808;28;20045;-35
2023/03/12 01:54:43;;;;;;;7.53;5.53;;;-0.10;99.90;;;;;;5012806;28;20098;-34
2023/03/12 01:57:17;;;;;;;8.52;5.65;;;-0.10;99.90;;;;;;5011778;28;20073;-34
2023/03/12 01:59:55;;;;;;;8.88;6.57;;;-0.10;99.90;;;;;;5047396;28;20041;-35
2023/03/12 02:02:25;;;;;;;10.43;6.03;;;-0.10;99.90;;;;;;5016621;28;20060;-35
2023/03/12 02:05:02;;;;;;;11.00;6.28;;;-0.10;99.90;;;;;;5010584;28;20040;-35
2023/03/12 02:07:27;;;;;;;8.68;6.05;;;-0.10;99.90;;;;;;5011941;28;20045;-35
2023/03/12 02:09:53;;;;;;;6.93;5.82;;;-0.10;99.90;;;;;;5015355;28;20045;-35
2023/03/12 02:12:19;;;;;;;6.90;5.70;;;-0.10;99.90;;;;;;5012815;28;20499;-35
2023/03/12 02:14:45;;;;;;;6.90;5.78;;;-0.10;99.90;;;;;;5003733;28;20033;-34
2023/03/12 02:17:11;;;;;;;7.22;5.90;;;-0.10;99.90;;;;;;5032360;28;20038;-35
2023/03/12 02:19:37;;;;;;;12.38;6.45;;;-0.10;99.90;;;;;;5012608;28;20038;-34
2023/03/12 02:22:03;;;;;;;10.48;6.65;;;-0.10;99.90;;;;;;5014622;28;20034;-39
2023/03/12 02:24:51;;;;;;;7.20;5.82;;;-0.10;99.90;;;;;;5007948;28;20037;-34
2023/03/12 02:27:18;;;;;;;6.90;5.57;;;0.00;99.90;;;;;;5005177;28;20120;-34
2023/03/12 02:29:44;;;;;;;8.48;5.63;;;0.00;99.90;;;;;;5014105;28;20044;-34
2023/03/12 02:32:20;;;;;;;8.02;5.70;;;0.00;99.90;;;;;;5015903;28;20124;-34
2023/03/12 02:34:46;;;;;;;8.15;5.43;;;0.00;99.90;;;;;;5013585;28;20041;-34
2023/03/12 02:37:13;;;;;;;11.95;6.03;;;0.00;99.90;;;;;;5014243;28;20095;-34
2023/03/12 02:39:40;;;;;;;6.90;5.18;;;-0.10;99.90;;;;;;5012761;28;20036;-34
2023/03/12 02:42:06;;;;;;;6.97;5.22;;;-0.10;99.90;;;;;;5008071;28;20041;-35
2023/03/12 02:44:33;;;;;;;5.82;5.05;;;-0.10;99.90;;;;;;5025582;28;20041;-34
2023/03/12 02:47:00;;;;;;;6.35;5.40;;;-0.10;99.90;;;;;;5010244;28;20033;-34
2023/03/12 02:49:29;;;;;;;6.85;4.95;;;-0.10;99.90;;;;;;5014167;28;20037;-34
2023/03/12 02:51:55;;;;;;;7.75;5.32;;;-0.10;99.90;;;;;;5011187;28;20041;-35
2023/03/12 02:54:22;;;;;;;7.13;4.75;;;-0.10;99.90;;;;;;5013979;28;20100;-34
2023/03/12 02:56:48;;;;;;;6.32;5.20;;;-0.10;99.90;;;;;;5013738;28;20037;-35
2023/03/12 02:59:14;;;;;;;7.35;4.43;;;-0.10;99.90;;;;;;5007735;28;20029;-34
2023/03/12 03:01:41;;;;;;;6.30;4.80;;;-0.10;99.90;;;;;;5013355;28;20041;-35
2023/03/12 03:04:07;;;;;;;6.10;5.18;;;-0.10;99.90;;;;;;5013605;28;20037;-34
2023/03/12 03:06:36;;;;;;;6.80;4.78;;;0.00;99.90;;;;;;5013499;28;20081;-34
2023/03/12 03:09:02;;;;;;;6.78;4.80;;;-0.10;99.90;;;;;;5014144;28;20606;-35
2023/03/12 03:11:28;;;;;;;5.70;4.90;;;0.00;99.90;;;;;;5012518;28;20455;-34
2023/03/12 03:13:54;;;;;;;5.03;4.43;;;0.00;99.90;;;;;;5010605;28;20065;-34
2023/03/12 03:16:21;;;;;;;6.70;4.38;;;-0.10;99.90;;;;;;5013847;28;20038;-34
2023/03/12 03:18:47;;;;;;;6.78;4.60;;;0.00;99.90;;;;;;5008585;28;20041;-34
2023/03/12 03:21:15;;;;;;;9.13;4.72;;;0.00;99.90;;;;;;5010913;28;20111;-34
2023/03/12 03:23:43;;;;;;;6.38;4.15;;;0.00;99.90;;;;;;5011832;28;20095;-34
2023/03/12 03:26:09;;;;;;;8.35;4.82;;;0.00;99.90;;;;;;5030825;28;20092;-34
2023/03/12 03:28:35;;;;;;;10.05;4.78;;;0.00;99.90;;;;;;5007603;28;20048;-34
2023/03/12 03:31:01;;;;;;;6.25;3.95;;;0.00;99.90;;;;;;5013305;28;20402;-34
2023/03/12 03:33:28;;;;;;;5.32;3.95;;;0.00;99.90;;;;;;5013597;28;20041;-34
2023/03/12 03:35:55;;;;;;;4.18;3.67;;;0.00;99.90;;;;;;5006445;28;20030;-34
2023/03/12 03:38:22;;;;;;;7.95;5.13;;;0.00;99.90;;;;;;5012661;28;20033;-35
2023/03/12 03:40:48;;;;;;;6.65;4.70;;;0.10;99.90;;;;;;5012776;28;20091;-34
2023/03/12 03:43:13;;;;;;;7.65;4.60;;;0.10;99.90;;;;;;5013176;28;20121;-35
2023/03/12 03:45:39;;;;;;;5.60;4.30;;;0.10;99.90;;;;;;5007425;28;20037;-35
2023/03/12 03:48:05;;;;;;;5.75;4.72;;;0.20;99.90;;;;;;5030857;28;20512;-34
2023/03/12 03:50:31;;;;;;;8.75;4.90;;;0.20;99.90;;;;;;5009157;28;20091;-34
2023/03/12 03:53:00;;;;;;;6.43;4.43;;;0.20;99.90;;;;;;5029073;28;20491;-34
2023/03/12 03:55:26;;;;;;;6.93;5.65;;;0.30;99.90;;;;;;5013473;28;20034;-34
2023/03/12 03:57:51;;;;;;;7.10;5.03;;;0.30;99.90;;;;;;5012876;28;20040;-34
2023/03/12 04:00:23;;;;;;;7.90;4.97;;;0.30;99.90;;;;;;5012895;28;20033;-34
2023/03/12 04:02:49;;;;;;;7.78;5.10;;;0.30;99.90;;;;;;5012929;28;20037;-34
2023/03/12 04:05:18;;;;;;;8.63;5.15;;;0.30;99.90;;;;;;5006190;28;20034;-35
2023/03/12 04:07:44;;;;;;;9.43;5.40;;;0.30;99.90;;;;;;5013401;28;20457;-34
2023/03/12 04:10:10;;;;;;;8.57;5.60;;;0.40;99.90;;;;;;5009273;28;20078;-34
2023/03/12 04:12:36;;;;;;;7.30;5.65;;;0.40;99.90;;;;;;5013182;28;20033;-34
2023/03/12 04:15:02;;;;;;;7.38;5.50;;;0.40;99.90;;;;;;5012882;28;20029;-34
2023/03/12 04:17:27;;;;;;;10.32;6.10;;;0.40;99.90;;;;;;5043812;28;20033;-34
2023/03/12 04:19:53;;;;;;;7.43;5.68;;;0.40;99.90;;;;;;5046123;28;20044;-35
2023/03/12 04:22:19;;;;;;;7.90;5.50;;;0.40;99.90;;;;;;5011741;28;20069;-34
2023/03/12 04:24:44;;;;;;;6.15;5.20;;;0.40;99.90;;;;;;5045096;28;20041;-34
2023/03/12 04:27:10;;;;;;;8.02;5.97;;;0.40;99.90;;;;;;5009469;28;20430;-34
2023/03/12 04:29:38;;;;;;;8.48;6.32;;;0.40;99.90;;;;;;5013236;28;20037;-34
2023/03/12 04:32:04;;;;;;;6.35;5.65;;;0.40;99.90;;;;;;5004414;28;20047;-34
2023/03/12 04:34:30;;;;;;;9.70;5.97;;;0.30;99.90;;;;;;5011870;28;20042;-34
2023/03/12 04:36:55;;;;;;;6.50;5.43;;;0.30;99.90;;;;;;5009254;28;20512;-34
2023/03/12 04:39:21;;;;;;;13.13;6.85;;;0.30;99.90;;;;;;5013183;28;20041;-34
2023/03/12 04:41:47;;;;;;;10.10;7.13;;;0.40;99.90;;;;;;5035805;28;20037;-34
2023/03/12 04:44:13;;;;;;;12.90;6.85;;;0.40;99.90;;;;;;5015007;28;20112;-34
2023/03/12 04:46:39;;;;;;;8.90;6.47;;;0.40;99.90;;;;;;5014820;28;20469;-35
2023/03/12 04:49:05;;;;;;;8.48;6.22;;;0.50;99.90;;;;;;5013193;28;20125;-34
2023/03/12 04:51:30;;;;;;;9.43;7.35;;;0.50;99.90;;;;;;5013531;28;20045;-34
2023/03/12 04:53:57;;;;;;;11.48;6.18;;;0.50;99.90;;;;;;5013765;28;20087;-34
2023/03/12 04:56:22;;;;;;;8.95;6.45;;;0.60;99.90;;;;;;5015545;28;20029;-34
2023/03/12 04:58:48;;;;;;;8.63;6.38;;;0.50;99.90;;;;;;5028950;28;20037;-34
2023/03/12 05:01:25;;;;;;;8.48;6.53;;;0.60;99.90;;;;;;5033883;28;20121;-34
2023/03/12 05:03:51;;;;;;;9.10;7.15;;;0.60;99.90;;;;;;5012960;28;20395;-35
2023/03/12 05:06:18;;;;;;;10.05;7.38;;;0.60;99.90;;;;;;5014188;28;20033;-34
2023/03/12 05:08:44;;;;;;;11.55;7.22;;;0.70;99.90;;;;;;5011113;28;20407;-34
2023/03/12 05:11:10;;;;;;;7.75;6.95;;;0.60;99.90;;;;;;5013853;28;20037;-34
2023/03/12 05:13:36;;;;;;;9.70;7.95;;;0.60;99.90;;;;;;5015335;28;20044;-34
2023/03/12 05:16:02;;;;;;;10.20;7.53;;;0.60;99.90;;;;;;5013735;28;20033;-34
2023/03/12 05:18:27;;;;;;;10.27;7.38;;;0.60;99.90;;;;;;5015363;28;20036;-35
2023/03/12 05:21:15;;;;;;;10.65;8.48;;;0.70;99.90;;;;;;5045428;28;20041;-34
2023/03/12 05:23:41;;;;;;;12.52;8.15;;;0.70;99.90;;;;;;5014509;28;20049;-34
2023/03/12 05:26:17;;;;;;;8.93;7.05;;;0.70;99.90;;;;;;5015865;28;20033;-34
2023/03/12 05:28:42;;;;;;;14.38;8.60;;;0.70;99.90;;;;;;5010785;28;20070;-34
2023/03/12 05:31:10;;;;;;;15.63;9.10;;;0.70;99.90;;;;;;5009407;28;20073;-34
2023/03/12 05:33:36;;;;;;;12.88;9.02;;;0.70;99.90;;;;;;5010924;28;20034;-34
2023/03/12 05:36:02;;;;;;;11.73;8.23;;;0.70;99.90;;;;;;5014389;28;20334;-34
2023/03/12 05:38:28;;;;;;;12.35;9.07;;;0.70;99.90;;;;;;5012613;28;20061;-34
2023/03/12 05:40:55;;;;;;;10.57;8.95;;;0.70;99.90;;;;;;5015295;28;20037;-34
2023/03/12 05:43:22;;;;;;;12.73;9.55;;;0.70;99.90;;;;;;5013807;28;20081;-34
2023/03/12 05:45:48;;;;;;;10.45;9.15;;;0.70;99.90;;;;;;5009990;28;20045;-34
2023/03/12 05:48:14;;;;;;;12.38;9.70;;;0.80;99.90;;;;;;5006821;28;20497;-34
2023/03/12 05:50:40;;;;;;;11.50;9.63;;;0.80;99.90;;;;;;5009470;28;20120;-34
2023/03/12 05:53:06;;;;;;;11.85;9.70;;;0.80;99.90;;;;;;5014295;28;20038;-34
2023/03/12 05:55:38;;;;;;;12.07;9.85;;;0.80;99.90;;;;;;5012836;28;20590;-34
2023/03/12 05:58:06;;;;;;;14.77;10.07;;;0.80;99.90;;;;;;5011810;28;20048;-34
2023/03/12 06:00:37;;;;;;;11.48;9.10;;;0.80;99.90;;;;;;5015276;28;20037;-35
2023/03/12 06:03:04;;;;;;;15.18;9.85;;;0.80;99.90;;;;;;5010466;28;20108;-34
2023/03/12 06:05:31;;;;;;;11.88;10.15;;;0.80;99.90;;;;;;5022946;28;20609;-34
2023/03/12 06:07:57;;;;;;;12.45;9.45;;;0.80;99.90;;;;;;5011184;28;20128;-34
2023/03/12 06:10:23;;;;;;;10.23;9.23;;;0.80;99.90;;;;;;5010784;28;20436;-34
2023/03/12 06:12:49;;;;;;;11.93;9.50;;;0.90;99.90;;;;;;5002859;28;20048;-34
2023/03/12 06:15:14;;;;;;;11.80;9.18;;;0.90;99.90;;;;;;5013021;28;20065;-34
2023/03/12 06:17:40;;;;;;;15.68;8.73;;;0.90;99.90;;;;;;5013083;28;20034;-34
2023/03/12 06:20:07;;;;;;;11.07;9.45;;;0.90;99.90;;;;;;5014128;28;20577;-35
2023/03/12 06:22:33;;;;;;;10.27;8.82;;;0.90;99.90;;;;;;5012986;28;20318;-34
2023/03/12 06:24:58;;;;;;;11.73;8.73;;;1.00;99.90;;;;;;5010034;28;20030;-34
2023/03/12 06:27:24;;;;;;;11.60;8.93;;;1.00;99.90;;;;;;5012152;28;20037;-34
2023/03/12 06:29:50;;;;;;;12.60;9.13;;;1.00;99.90;;;;;;5012075;28;20036;-35
2023/03/12 06:32:17;;;;;;;11.40;9.20;;;1.00;99.90;;;;;;5011931;28;20055;-34
2023/03/12 06:34:43;;;;;;;11.52;8.93;;;1.10;99.90;;;;;;5010872;28;20495;-35
2023/03/12 06:37:10;;;;;;;14.30;9.25;;;1.10;99.90;;;;;;5009554;28;20080;-34
2023/03/12 06:39:37;;;;;;;9.88;8.57;;;1.10;99.90;;;;;;5002713;28;20073;-35
2023/03/12 06:42:03;;;;;;;9.15;8.10;;;1.20;99.90;;;;;;5009530;28;20044;-34
2023/03/12 06:44:30;;;;;;;14.23;9.15;;;1.20;99.90;;;;;;5006314;28;20483;-34
2023/03/12 06:46:56;;;;;;;9.98;8.70;;;1.20;99.90;;;;;;5011364;28;20100;-35
2023/03/12 06:49:22;;;;;;;9.88;8.27;;;1.30;99.90;;;;;;5011286;28;20068;-34
2023/03/12 06:51:48;;;;;;;13.15;9.23;;;1.30;99.90;;;;;;5012064;28;20045;-34
2023/03/12 06:54:14;;;;;;;9.95;8.93;;;1.30;99.90;;;;;;5011045;28;20038;-35
2023/03/12 06:56:40;;;;;;;10.68;8.77;;;1.40;99.90;;;;;;5010633;28;20139;-35
2023/03/12 06:59:06;;;;;;;11.73;8.93;;;1.40;99.90;;;;;;5008902;28;20068;-34
2023/03/12 07:01:31;;;;;;;13.50;8.60;;;1.40;99.90;;;;;;5006374;28;20602;-34
2023/03/12 07:03:57;;;;;;;11.85;8.68;;;1.40;99.90;;;;;;4997043;28;20038;-34
2023/03/12 07:06:23;;;;;;;12.02;8.98;;;1.50;99.90;;;;;;5006348;28;20116;-35
2023/03/12 07:08:50;;;;;;;11.07;8.18;;;1.50;99.90;;;;;;5024876;28;20570;-35
2023/03/12 07:11:19;;;;;;;10.95;7.97;;;1.60;99.90;;;;;;5003576;28;20193;-35
2023/03/12 07:13:45;;;;;;;9.57;8.38;;;1.60;99.90;;;;;;5008866;28;20120;-35
2023/03/12 07:16:11;;;;;;;11.02;7.90;;;1.60;99.90;;;;;;5003681;28;20125;-34
2023/03/12 07:18:37;;;;;;;14.93;9.90;;;1.70;99.90;;;;;;5011161;28;20545;-34
2023/03/12 07:21:03;;;;;;;8.73;7.80;;;1.70;99.90;;;;;;5011274;28;20045;-35
2023/03/12 07:23:29;;;;;;;9.93;8.15;;;1.70;99.90;;;;;;5014206;28;20041;-35
2023/03/12 07:25:55;;;;;;;12.90;8.10;;;1.80;99.90;;;;;;5008528;28;20045;-35
2023/03/12 07:28:21;;;;;;;10.77;7.53;;;1.80;99.90;;;;;;5019988;28;20511;-34
2023/03/12 07:30:49;;;;;;;9.95;7.20;;;1.80;99.90;;;;;;5011116;28;20422;-35
2023/03/12 07:33:19;;;;;;;11.20;8.35;;;1.80;99.90;;;;;;5011584;28;20040;-35
2023/03/12 07:35:46;;;;;;;17.27;9.18;;;1.80;99.90;;;;;;5012343;28;20064;-35
2023/03/12 07:38:13;;;;;;;11.45;10.35;;;1.90;99.90;;;;;;5013239;28;20091;-35
2023/03/12 07:40:38;;;;;;;12.45;10.10;;;1.90;99.90;;;;;;5012033;28;20091;-35
2023/03/12 07:43:09;;;;;;;13.55;9.55;;;1.90;99.90;;;;;;5014606;28;20037;-35
2023/03/12 07:45:37;;;;;;;11.32;9.40;;;1.90;99.90;;;;;;5003889;28;20054;-35
2023/03/12 07:48:03;;;;;;;13.98;9.93;;;1.90;99.90;;;;;;5013751;28;20518;-35
2023/03/12 07:50:29;;;;;;;11.38;9.43;;;1.90;99.90;;;;;;5024020;28;20045;-35
2023/03/12 07:52:54;;;;;;;11.77;8.98;;;1.90;99.90;;;;;;5007243;28;20094;-35
2023/03/12 07:55:20;;;;;;;14.23;9.50;;;1.90;99.90;;;;;;5018092;28;20484;-34
2023/03/12 07:57:45;;;;;;;14.57;10.75;;;1.90;99.90;;;;;;5012264;28;20041;-34
2023/03/12 08:00:12;;;;;;;15.18;10.52;;;1.90;99.90;;;;;;5002178;28;20157;-35
2023/03/12 08:02:39;;;;;;;10.13;8.85;;;1.80;99.90;;;;;;4996740;28;20077;-34
2023/03/12 08:05:05;;;;;;;12.80;8.95;;;1.80;99.90;;;;;;5022096;28;21097;-34
2023/03/12 08:07:33;;;;;;;12.38;8.43;;;1.80;99.90;;;;;;5010289;28;20042;-34
2023/03/12 08:10:00;;;;;;;11.68;9.13;;;1.80;99.90;;;;;;5020158;28;20621;-35
2023/03/12 08:12:26;;;;;;;14.45;9.23;;;1.80;99.90;;;;;;5035530;28;20054;-35
2023/03/12 08:14:52;;;;;;;12.30;9.50;;;1.80;99.90;;;;;;5015271;28;20117;-34
2023/03/12 08:17:19;;;;;;;11.10;9.18;;;1.80;99.90;;;;;;5015148;28;20045;-35
2023/03/12 08:19:44;;;;;;;9.70;8.55;;;1.80;99.90;;;;;;5013189;28;20062;-35
2023/03/12 08:22:10;;;;;;;9.65;8.63;;;1.80;99.90;;;;;;5014010;28;20508;-34
2023/03/12 08:24:36;;;;;;;12.32;9.73;;;1.90;99.90;;;;;;5013005;28;20449;-35
2023/03/12 08:27:02;;;;;;;13.45;9.80;;;1.90;99.90;;;;;;5015321;28;20052;-35
2023/03/12 08:29:27;;;;;;;31.58;23.42;;;1.90;99.90;;;;;;5010943;28;20340;-35
2023/03/12 08:31:54;;;;;;;25.48;21.48;;;1.90;99.90;;;;;;4996636;28;20041;-35
2023/03/12 08:34:20;;;;;;;16.48;12.90;;;1.90;99.90;;;;;;5016438;28;20495;-35
2023/03/12 08:36:46;;;;;;;14.20;9.85;;;1.90;99.90;;;;;;5016808;28;20048;-35
2023/03/12 08:39:11;;;;;;;9.10;8.18;;;2.00;99.90;;;;;;5015377;28;20033;-35
2023/03/12 08:41:37;;;;;;;11.63;9.23;;;2.00;99.90;;;;;;5016727;28;20052;-35
2023/03/12 08:44:03;;;;;;;12.23;8.90;;;2.00;99.90;;;;;;4999592;28;20033;-35
2023/03/12 08:46:29;;;;;;;12.40;9.20;;;2.00;99.90;;;;;;5046042;28;20033;-35
2023/03/12 08:48:54;;;;;;;11.48;8.70;;;2.00;99.90;;;;;;5043152;28;20125;-35
2023/03/12 08:51:20;;;;;;;10.15;9.13;;;2.00;99.90;;;;;;5015240;28;20065;-35
2023/03/12 08:53:46;;;;;;;15.88;10.73;;;2.10;99.90;;;;;;5042057;28;20049;-35
2023/03/12 08:56:12;;;;;;;12.77;10.18;;;2.10;99.90;;;;;;5012743;28;20113;-35
2023/03/12 08:58:38;;;;;;;13.15;10.80;;;2.10;99.90;;;;;;5041110;28;20045;-35
2023/03/12 09:01:11;;;;;;;13.77;10.88;;;2.10;99.90;;;;;;4999965;28;20041;-35
2023/03/12 09:03:37;;;;;;;12.45;9.95;;;2.10;99.90;;;;;;5027606;28;20056;-35
2023/03/12 09:06:12;;;;;;;13.70;11.07;;;2.00;99.90;;;;;;5010705;28;20506;-35
2023/03/12 09:08:39;;;;;;;13.68;11.80;;;2.00;99.90;;;;;;5015976;28;20498;-35
2023/03/12 09:11:06;;;;;;;14.55;11.10;;;2.00;99.90;;;;;;5015829;28;20034;-35
2023/03/12 09:13:32;;;;;;;16.58;11.30;;;1.90;99.90;;;;;;5008019;28;20390;-34
2023/03/12 09:15:59;;;;;;;15.90;12.40;;;1.90;99.90;;;;;;5016580;28;20029;-35
2023/03/12 09:18:25;;;;;;;16.58;12.25;;;1.90;99.90;;;;;;5013817;28;20038;-35
2023/03/12 09:20:51;;;;;;;15.05;13.40;;;1.90;99.90;;;;;;5015851;28;20517;-35
2023/03/12 09:23:17;;;;;;;16.77;13.13;;;1.90;99.90;;;;;;5014312;28;20045;-35
2023/03/12 09:25:46;;;;;;;14.27;12.75;;;2.00;99.90;;;;;;5014172;28;20047;-35
2023/03/12 09:28:13;;;;;;;15.82;13.48;;;2.00;99.90;;;;;;5015965;28;20029;-35
2023/03/12 09:30:38;;;;;;;17.90;13.82;;;2.00;99.90;;;;;;5015314;28;20404;-35
2023/03/12 09:33:04;;;;;;;18.10;14.80;;;2.00;99.90;;;;;;5010344;28;20041;-35
2023/03/12 09:35:33;;;;;;;16.00;13.77;;;2.00;99.90;;;;;;5010873;28;20026;-35
2023/03/12 09:37:58;;;;;;;19.55;14.70;;;2.10;99.90;;;;;;5013023;28;20033;-35
2023/03/12 09:40:28;;;;;;;21.40;16.48;;;2.10;99.90;;;;;;5015566;28;20449;-35
2023/03/12 09:43:58;;;;;;;21.48;15.98;;;2.10;99.90;;;;;;5044442;28;20434;-34
2023/03/12 09:46:32;;;;;;;26.95;17.60;;;2.10;99.90;;;;;;4902751;28;20269;-35
2023/03/12 09:49:04;;;;;;;20.13;17.27;;;2.20;99.90;;;;;;5009261;28;20033;-35
2023/03/12 09:51:39;;;;;;;22.05;18.77;;;2.20;99.90;;;;;;5045530;28;20052;-35
2023/03/12 09:54:12;;;;;;;24.58;17.88;;;2.20;99.90;;;;;;5012329;28;20034;-35
2023/03/12 09:56:38;;;;;;;34.75;24.17;;;2.20;99.90;;;;;;5009775;28;20034;-35
2023/03/12 09:59:11;;;;;;;21.20;18.27;;;2.30;99.90;;;;;;5039857;28;20065;-35
2023/03/12 10:01:55;;;;;;;27.73;20.07;;;2.30;99.90;;;;;;5010983;28;20099;-35
2023/03/12 10:04:42;;;;;;;25.48;18.63;;;2.40;99.90;;;;;;5014976;28;20092;-35
2023/03/12 10:07:19;;;;;;;25.33;19.05;;;2.40;99.90;;;;;;5014986;28;20403;-35
2023/03/12 10:09:57;;;;;;;24.77;19.80;;;2.50;99.90;;;;;;5012147;28;20044;-35
2023/03/12 10:12:38;;;;;;;29.58;23.63;;;2.50;99.90;;;;;;5010557;28;20046;-35
2023/03/12 10:15:41;;;;;;;25.00;21.05;;;2.60;99.90;;;;;;5017926;28;20444;-35
2023/03/12 10:18:40;;;;;;;19.25;15.18;;;2.60;99.90;;;;;;5009982;28;20037;-35
2023/03/12 10:21:17;;;;;;;26.08;19.08;;;2.70;99.90;;;;;;5009045;28;20121;-35
2023/03/12 10:24:21;;;;;;;25.02;21.13;;;2.70;99.90;;;;;;5014591;28;20445;-35
2023/03/12 10:26:50;;;;;;;28.85;20.80;;;2.70;99.90;;;;;;5014526;28;20517;-35
2023/03/12 10:29:24;;;;;;;28.85;22.13;;;2.80;99.90;;;;;;5014940;28;20041;-34
2023/03/12 10:32:04;;;;;;;27.83;22.40;;;2.80;99.90;;;;;;5013808;28;20046;-35
2023/03/12 10:34:50;;;;;;;27.42;21.35;;;2.90;99.90;;;;;;5013557;28;20044;-35
2023/03/12 10:37:20;;;;;;;29.70;22.85;;;2.90;99.90;;;;;;5014306;28;20459;-35
2023/03/12 10:39:47;;;;;;;32.00;22.85;;;3.00;99.90;;;;;;5014560;28;20538;-35
2023/03/12 10:42:24;;;;;;;27.45;21.67;;;3.00;99.90;;;;;;5014071;28;20095;-35
2023/03/12 10:44:55;;;;;;;24.10;19.67;;;3.10;99.90;;;;;;5014451;28;20145;-35
2023/03/12 10:47:35;;;;;;;23.33;18.90;;;3.10;99.90;;;;;;5012154;28;20041;-35
2023/03/12 10:50:18;;;;;;;30.13;20.98;;;3.20;99.90;;;;;;5002242;28;20045;-35
2023/03/12 10:52:46;;;;;;;27.85;22.38;;;3.20;99.90;;;;;;5000295;28;20132;-35
2023/03/12 10:55:21;;;;;;;23.60;19.52;;;3.30;99.90;;;;;;5011133;28;20548;-35
2023/03/12 10:57:47;;;;;;;23.48;19.02;;;3.30;99.90;;;;;;5005520;28;20466;-35
2023/03/12 11:00:33;;;;;;;28.88;21.30;;;3.40;99.90;;;;;;4997554;28;20037;-35
2023/03/12 11:03:02;;;;;;;25.33;20.15;;;3.40;99.90;;;;;;5017686;28;20037;-35
2023/03/12 11:05:34;;;;;;;30.30;22.65;;;3.40;99.90;;;;;;5038287;28;20498;-35
2023/03/12 11:08:02;;;;;;;24.00;19.80;;;3.50;99.90;;;;;;5003172;28;20045;-37
2023/03/12 11:10:46;;;;;;;23.33;19.27;;;3.50;99.90;;;;;;5004738;28;20033;-36
2023/03/12 11:13:26;;;;;;;25.65;19.10;;;3.60;99.90;;;;;;5002727;28;20120;-35
2023/03/12 11:15:53;;;;;;;22.98;17.17;;;3.60;99.90;;;;;;5037308;28;20049;-35
2023/03/12 11:18:22;;;;;;;25.77;21.10;;;3.60;99.90;;;;;;4999581;28;20042;-35
2023/03/12 11:20:55;;;;;;;22.77;20.38;;;3.70;99.90;;;;;;4997810;28;20084;-35
2023/03/12 11:23:29;;;;;;;25.92;19.15;;;3.70;99.90;;;;;;5000814;28;20047;-35
2023/03/12 11:26:03;;;;;;;21.90;17.00;;;3.80;99.90;;;;;;5011508;28;20038;-35
2023/03/12 11:28:37;;;;;;;21.73;18.48;;;3.80;99.90;;;;;;5008110;28;20049;-35
2023/03/12 11:31:07;;;;;;;18.45;14.57;;;3.90;99.90;;;;;;4999695;28;20091;-35
2023/03/12 11:33:33;;;;;;;21.33;17.52;;;4.00;99.90;;;;;;5012317;28;20545;-36
2023/03/12 11:36:02;;;;;;;20.88;16.00;;;4.00;99.90;;;;;;5009349;28;20029;-36
2023/03/12 11:38:48;;;;;;;23.05;18.65;;;4.10;99.90;;;;;;5013394;28;20049;-36
2023/03/12 11:41:23;;;;;;;23.83;17.27;;;4.20;99.90;;;;;;5000600;28;20073;-35
2023/03/12 11:44:00;;;;;;;27.48;17.90;;;4.20;99.90;;;;;;5011746;28;20053;-35
2023/03/12 11:46:52;;;;;;;18.55;15.00;;;4.30;99.90;;;;;;5000125;28;20038;-35
2023/03/12 11:49:32;;;;;;;18.98;15.00;;;4.40;99.90;;;;;;5009307;28;20037;-35
2023/03/12 11:52:09;;;;;;;21.15;15.48;;;4.50;99.90;;;;;;5006432;28;20067;-35
2023/03/12 11:55:24;;;;;;;18.10;14.45;;;4.60;99.90;;;;;;5008704;28;20042;-35
2023/03/12 11:58:27;;;;;;;22.75;16.90;;;4.70;99.90;;;;;;5012413;28;20507;-36
2023/03/12 12:01:25;;;;;;;19.25;16.17;;;4.80;99.90;;;;;;5027552;28;20494;-35
2023/03/12 12:04:17;;;;;;;19.85;15.10;;;5.00;99.90;;;;;;5020302;28;20056;-36
2023/03/12 12:07:07;;;;;;;22.23;15.68;;;5.10;99.90;;;;;;5010509;28;20408;-36
2023/03/12 12:09:48;;;;;;;26.40;18.15;;;5.20;99.90;;;;;;5012228;28;20499;-36
2023/03/12 12:12:23;;;;;;;20.88;15.93;;;5.20;99.90;;;;;;5011877;28;20091;-35
2023/03/12 12:15:12;;;;;;;23.33;17.70;;;5.30;99.90;;;;;;5011654;28;20044;-35
2023/03/12 12:18:22;;;;;;;20.08;14.93;;;5.40;99.90;;;;;;5006602;28;20092;-36
2023/03/12 12:21:04;;;;;;;20.35;15.55;;;5.50;99.90;;;;;;5037455;28;20115;-36
2023/03/12 12:23:49;;;;;;;21.50;16.00;;;5.50;99.90;;;;;;5039533;28;20056;-36
2023/03/12 12:26:44;;;;;;;22.85;15.80;;;5.60;99.90;;;;;;5006087;28;20041;-36
2023/03/12 12:29:18;;;;;;;23.33;15.80;;;5.60;99.90;;;;;;5009881;28;20374;-36
2023/03/12 12:31:59;;;;;;;23.85;17.25;;;5.70;99.90;;;;;;5011229;28;20049;-36
2023/03/12 12:34:31;;;;;;;23.27;17.08;;;5.70;99.90;;;;;;5008098;28;20427;-36
2023/03/12 12:37:35;;;;;;;25.98;18.02;;;5.80;99.90;;;;;;5009347;28;20247;-36
2023/03/12 12:40:15;;;;;;;22.27;17.43;;;5.90;99.90;;;;;;5005456;28;20519;-36
2023/03/12 12:42:54;;;;;;;23.38;15.75;;;5.90;99.90;;;;;;5009450;28;20042;-36
2023/03/12 12:45:22;;;;;;;29.42;18.13;;;5.90;99.90;;;;;;5012160;28;20120;-36
2023/03/12 12:48:12;;;;;;;31.92;20.02;;;6.00;99.90;;;;;;5008161;28;20080;-36
2023/03/12 12:50:41;;;;;;;27.45;18.80;;;6.10;99.90;;;;;;5012472;28;20042;-36
2023/03/12 12:53:27;;;;;;;33.88;20.92;;;6.20;99.90;;;;;;5012880;28;20436;-36
2023/03/12 12:56:11;;;;;;;32.03;21.65;;;6.30;99.90;;;;;;5008375;28;20395;-36
2023/03/12 12:58:36;;;;;;;38.20;20.83;;;6.40;99.90;;;;;;5005942;28;20070;-36
2023/03/12 13:01:02;;;;;;;33.90;19.58;;;6.40;99.90;;;;;;5016421;28;20462;-37